Observations for Trim Market St
| Time | AQI | Temp °C | Hum % | Pres Pa | CO μg/m³ | H₂S μg/m³ | NO μg/m³ | NO₂ μg/m³ | O₃ μg/m³ | SO₂ μg/m³ | PM1 μg/m³ | PM2.5 μg/m³ | PM10 μg/m³ |
|---|---|---|---|---|---|---|---|---|---|---|---|---|---|
| Wednesday 15 July 2026 | |||||||||||||
| 18:54 | 1 | 26.4 | 47 | 61,147 | 0 | 0 | 0 | 6.64 | 34.4 | 0 | 7.84 | 11.43 | 15.95 |
| 18:53 | 1 | 26.5 | 47 | 60,977 | 0 | 0 | 0 | 6.21 | 34.63 | 0 | 5.7 | 8.82 | 11.35 |
| 18:52 | 1 | 26.5 | 47 | 60,894 | 0 | 0 | 0 | 5.92 | 31.94 | 0 | 6.41 | 8.83 | 12.12 |
| 18:47 | 1 | 26.6 | 47 | 60,789 | 0 | 0 | 0 | 6.39 | 30.12 | 0 | 6.41 | 10.39 | 14.42 |
| 18:46 | 1 | 26.6 | 47 | 60,428 | 0 | 0 | 0 | 5.67 | 26.21 | 0 | 7.13 | 10.38 | 15.17 |
| 18:41 | 1 | 26.7 | 47 | 59,178 | 0 | 3.36 | 0 | 10.43 | 34.18 | 0 | 7.13 | 11.93 | 16.7 |
| 18:36 | 1 | 26.8 | 47 | 57,769 | 0 | 9.52 | 0 | 11.59 | 37.3 | 0 | 7.13 | 10.36 | 13.63 |
| 18:32 | 1 | 26.9 | 47 | 58,546 | 0 | 7.94 | 0 | 9.51 | 36.44 | 0 | 6.41 | 10.91 | 14.42 |
| 18:31 | 1 | 27 | 46 | 58,718 | 0 | 8.6 | 0 | 11.99 | 36.9 | 0 | 6.41 | 10.91 | 14.42 |
| 18:30 | 1 | 27 | 46 | 58,888 | 0 | 8.2 | 0 | 10.62 | 38.25 | 0 | 7.84 | 10.93 | 15.97 |
| 18:29 | 1 | 27 | 46 | 59,093 | 0 | 7.53 | 0 | 10.33 | 35.67 | 0 | 6.41 | 10.93 | 16.75 |
| 18:28 | 1 | 27.1 | 46 | 59,334 | 0 | 8.41 | 0 | 10.61 | 36.7 | 0 | 7.13 | 10.94 | 14.45 |
| 18:27 | 1 | 27.1 | 46 | 59,551 | 0 | 9.8 | 0 | 10.92 | 36.85 | 0 | 6.41 | 10.43 | 14.45 |
| 18:26 | 1 | 27.2 | 46 | 59,772 | 0 | 11.39 | 0 | 11.81 | 39.44 | 0 | 5.7 | 9.39 | 12.15 |
| 18:25 | 1 | 27.2 | 46 | 60,153 | 0 | 9.74 | 0 | 11.43 | 37 | 0 | 7.13 | 11.49 | 17.55 |
| 18:24 | 1 | 27.2 | 46 | 60,448 | 0 | 10.01 | 0 | 12.34 | 36.56 | 0 | 6.41 | 8.89 | 12.16 |
| 18:23 | 1 | 27.3 | 45 | 60,724 | 0 | 8.72 | 0 | 10.24 | 38.03 | 0 | 4.99 | 8.9 | 12.94 |
| 18:22 | 1 | 27.3 | 45 | 61,040 | 0 | 8.4 | 0 | 10.35 | 37.59 | 0 | 5.7 | 9.43 | 12.94 |
| 18:21 | 1 | 27.4 | 45 | 61,226 | 0 | 7.17 | 0 | 9.74 | 34.47 | 0 | 6.41 | 11.52 | 15.27 |
| 18:20 | 1 | 27.4 | 45 | 61,376 | 0 | 7.62 | 0 | 9.24 | 35.02 | 0 | 6.41 | 10.48 | 15.27 |